sensor_id;sensor_type;location;lat;lon;timestamp;temperature;humidity
54954;DHT22;40855;51.072;5.402;2023-01-29T00:01:27;-1.00;99.90
54954;DHT22;40855;51.072;5.402;2023-01-29T00:03:53;-1.00;99.90
54954;DHT22;40855;51.072;5.402;2023-01-29T00:06:19;-1.00;99.90
54954;DHT22;40855;51.072;5.402;2023-01-29T00:08:45;-1.10;99.90
54954;DHT22;40855;51.072;5.402;2023-01-29T00:11:11;-1.10;99.90
54954;DHT22;40855;51.072;5.402;2023-01-29T00:13:37;-1.10;99.90
54954;DHT22;40855;51.072;5.402;2023-01-29T00:16:03;-1.10;99.90
54954;DHT22;40855;51.072;5.402;2023-01-29T00:18:29;-1.10;99.90
54954;DHT22;40855;51.072;5.402;2023-01-29T00:20:55;-1.10;99.90
54954;DHT22;40855;51.072;5.402;2023-01-29T00:23:21;-1.10;99.90
54954;DHT22;40855;51.072;5.402;2023-01-29T00:25:47;-1.20;99.90
54954;DHT22;40855;51.072;5.402;2023-01-29T00:28:14;-1.20;99.90
54954;DHT22;40855;51.072;5.402;2023-01-29T00:30:40;-1.20;99.90
54954;DHT22;40855;51.072;5.402;2023-01-29T00:33:06;-1.20;99.90
54954;DHT22;40855;51.072;5.402;2023-01-29T00:35:33;-1.30;99.90
54954;DHT22;40855;51.072;5.402;2023-01-29T00:37:58;-1.30;99.90
54954;DHT22;40855;51.072;5.402;2023-01-29T00:40:25;-1.30;99.90
54954;DHT22;40855;51.072;5.402;2023-01-29T00:42:51;-1.30;99.90
54954;DHT22;40855;51.072;5.402;2023-01-29T00:45:36;-1.30;99.90
54954;DHT22;40855;51.072;5.402;2023-01-29T00:48:04;-1.30;99.90
54954;DHT22;40855;51.072;5.402;2023-01-29T00:50:30;-1.30;99.90
54954;DHT22;40855;51.072;5.402;2023-01-29T00:52:56;-1.40;99.90
54954;DHT22;40855;51.072;5.402;2023-01-29T00:55:22;-1.40;99.90
54954;DHT22;40855;51.072;5.402;2023-01-29T00:57:47;-1.40;99.90
54954;DHT22;40855;51.072;5.402;2023-01-29T01:00:16;-1.40;99.90
54954;DHT22;40855;51.072;5.402;2023-01-29T01:02:42;-1.40;99.90
54954;DHT22;40855;51.072;5.402;2023-01-29T01:05:26;-1.40;99.90
54954;DHT22;40855;51.072;5.402;2023-01-29T01:07:55;-1.40;99.90
54954;DHT22;40855;51.072;5.402;2023-01-29T01:10:27;-1.50;99.90
54954;DHT22;40855;51.072;5.402;2023-01-29T01:13:04;-1.50;99.90
54954;DHT22;40855;51.072;5.402;2023-01-29T01:15:33;-1.50;99.90
54954;DHT22;40855;51.072;5.402;2023-01-29T01:18:00;-1.50;99.90
54954;DHT22;40855;51.072;5.402;2023-01-29T01:20:29;-1.50;99.90
54954;DHT22;40855;51.072;5.402;2023-01-29T01:22:56;-1.50;99.90
54954;DHT22;40855;51.072;5.402;2023-01-29T01:25:23;-1.50;99.90
54954;DHT22;40855;51.072;5.402;2023-01-29T01:27:55;-1.50;99.90
54954;DHT22;40855;51.072;5.402;2023-01-29T01:30:22;-1.50;99.90
54954;DHT22;40855;51.072;5.402;2023-01-29T01:32:48;-1.60;99.90
54954;DHT22;40855;51.072;5.402;2023-01-29T01:35:14;-1.50;99.90
54954;DHT22;40855;51.072;5.402;2023-01-29T01:37:40;-1.60;99.90
54954;DHT22;40855;51.072;5.402;2023-01-29T01:40:17;-1.60;99.90
54954;DHT22;40855;51.072;5.402;2023-01-29T01:42:47;-1.50;99.90
54954;DHT22;40855;51.072;5.402;2023-01-29T01:45:29;-1.50;99.90
54954;DHT22;40855;51.072;5.402;2023-01-29T01:50:30;-1.60;99.90
54954;DHT22;40855;51.072;5.402;2023-01-29T01:53:09;-1.60;99.90
54954;DHT22;40855;51.072;5.402;2023-01-29T01:55:47;-1.60;99.90
54954;DHT22;40855;51.072;5.402;2023-01-29T01:58:20;-1.60;99.90
54954;DHT22;40855;51.072;5.402;2023-01-29T02:00:47;-1.60;99.90
54954;DHT22;40855;51.072;5.402;2023-01-29T02:03:13;-1.60;99.90
54954;DHT22;40855;51.072;5.402;2023-01-29T02:05:59;-1.60;99.90
54954;DHT22;40855;51.072;5.402;2023-01-29T02:08:50;-1.70;99.90
54954;DHT22;40855;51.072;5.402;2023-01-29T02:11:36;-1.70;99.90
54954;DHT22;40855;51.072;5.402;2023-01-29T02:14:03;-1.70;99.90
54954;DHT22;40855;51.072;5.402;2023-01-29T02:16:28;-1.70;99.90
54954;DHT22;40855;51.072;5.402;2023-01-29T02:18:54;-1.80;99.90
54954;DHT22;40855;51.072;5.402;2023-01-29T02:29:24;-1.90;99.90
54954;DHT22;40855;51.072;5.402;2023-01-29T02:32:16;-1.90;99.90
54954;DHT22;40855;51.072;5.402;2023-01-29T02:35:05;-1.90;99.90
54954;DHT22;40855;51.072;5.402;2023-01-29T02:38:08;-1.90;99.90
54954;DHT22;40855;51.072;5.402;2023-01-29T02:40:51;-1.80;99.90
54954;DHT22;40855;51.072;5.402;2023-01-29T02:46:32;-1.90;99.90
54954;DHT22;40855;51.072;5.402;2023-01-29T02:49:29;-1.90;99.90
54954;DHT22;40855;51.072;5.402;2023-01-29T02:57:09;-1.90;99.90
54954;DHT22;40855;51.072;5.402;2023-01-29T02:59:53;-1.90;99.90
54954;DHT22;40855;51.072;5.402;2023-01-29T03:02:29;-1.90;99.90
54954;DHT22;40855;51.072;5.402;2023-01-29T03:05:00;-2.00;99.90
54954;DHT22;40855;51.072;5.402;2023-01-29T03:07:33;-2.00;99.90
54954;DHT22;40855;51.072;5.402;2023-01-29T03:10:25;-2.00;99.90
54954;DHT22;40855;51.072;5.402;2023-01-29T03:13:18;-2.00;99.90
54954;DHT22;40855;51.072;5.402;2023-01-29T03:15:51;-2.00;99.90
54954;DHT22;40855;51.072;5.402;2023-01-29T03:18:28;-2.00;99.90
54954;DHT22;40855;51.072;5.402;2023-01-29T03:21:02;-2.00;99.90
54954;DHT22;40855;51.072;5.402;2023-01-29T03:23:50;-2.00;99.90
54954;DHT22;40855;51.072;5.402;2023-01-29T03:26:35;-2.00;99.90
54954;DHT22;40855;51.072;5.402;2023-01-29T03:29:20;-2.00;99.90
54954;DHT22;40855;51.072;5.402;2023-01-29T03:32:06;-2.00;99.90
54954;DHT22;40855;51.072;5.402;2023-01-29T03:34:41;-2.10;99.90
54954;DHT22;40855;51.072;5.402;2023-01-29T03:37:41;-2.00;99.90
54954;DHT22;40855;51.072;5.402;2023-01-29T03:40:08;-2.10;99.90
54954;DHT22;40855;51.072;5.402;2023-01-29T03:42:58;-2.10;99.90
54954;DHT22;40855;51.072;5.402;2023-01-29T03:53:46;-2.20;99.90
54954;DHT22;40855;51.072;5.402;2023-01-29T04:01:52;-2.10;99.90
54954;DHT22;40855;51.072;5.402;2023-01-29T04:04:26;-2.10;99.90
54954;DHT22;40855;51.072;5.402;2023-01-29T04:06:57;-2.10;99.90
54954;DHT22;40855;51.072;5.402;2023-01-29T04:09:39;-2.20;99.90
54954;DHT22;40855;51.072;5.402;2023-01-29T04:12:08;-2.20;99.90
54954;DHT22;40855;51.072;5.402;2023-01-29T04:14:35;-2.10;99.90
54954;DHT22;40855;51.072;5.402;2023-01-29T04:17:10;-2.20;99.90
54954;DHT22;40855;51.072;5.402;2023-01-29T04:19:37;-2.20;99.90
54954;DHT22;40855;51.072;5.402;2023-01-29T04:24:39;-2.20;99.90
54954;DHT22;40855;51.072;5.402;2023-01-29T04:29:58;-2.20;99.90
54954;DHT22;40855;51.072;5.402;2023-01-29T04:32:27;-2.20;99.90
54954;DHT22;40855;51.072;5.402;2023-01-29T04:38:11;-2.20;99.90
54954;DHT22;40855;51.072;5.402;2023-01-29T04:40:59;-2.20;99.90
54954;DHT22;40855;51.072;5.402;2023-01-29T04:44:00;-2.20;99.90
54954;DHT22;40855;51.072;5.402;2023-01-29T04:46:42;-2.20;99.90
54954;DHT22;40855;51.072;5.402;2023-01-29T04:49:26;-2.20;99.90
54954;DHT22;40855;51.072;5.402;2023-01-29T04:52:08;-2.20;99.90
54954;DHT22;40855;51.072;5.402;2023-01-29T04:58:03;-2.20;99.90
54954;DHT22;40855;51.072;5.402;2023-01-29T05:00:43;-2.20;99.90
54954;DHT22;40855;51.072;5.402;2023-01-29T05:03:13;-2.20;99.90
54954;DHT22;40855;51.072;5.402;2023-01-29T05:05:42;-2.20;99.90
54954;DHT22;40855;51.072;5.402;2023-01-29T05:08:12;-2.20;99.90
54954;DHT22;40855;51.072;5.402;2023-01-29T05:10:39;-2.10;99.90
54954;DHT22;40855;51.072;5.402;2023-01-29T05:13:09;-2.10;99.90
54954;DHT22;40855;51.072;5.402;2023-01-29T05:15:38;-2.10;99.90
54954;DHT22;40855;51.072;5.402;2023-01-29T05:18:05;-2.10;99.90
54954;DHT22;40855;51.072;5.402;2023-01-29T05:20:34;-2.10;99.90
54954;DHT22;40855;51.072;5.402;2023-01-29T05:23:01;-2.00;99.90
54954;DHT22;40855;51.072;5.402;2023-01-29T05:25:29;-2.00;99.90
54954;DHT22;40855;51.072;5.402;2023-01-29T05:27:55;-2.00;99.90
54954;DHT22;40855;51.072;5.402;2023-01-29T05:30:34;-1.90;99.90
54954;DHT22;40855;51.072;5.402;2023-01-29T05:33:00;-1.90;99.90
54954;DHT22;40855;51.072;5.402;2023-01-29T05:35:27;-1.90;99.90
54954;DHT22;40855;51.072;5.402;2023-01-29T05:37:56;-1.90;99.90
54954;DHT22;40855;51.072;5.402;2023-01-29T05:40:23;-1.90;99.90
54954;DHT22;40855;51.072;5.402;2023-01-29T05:42:49;-1.80;99.90
54954;DHT22;40855;51.072;5.402;2023-01-29T05:45:17;-1.80;99.90
54954;DHT22;40855;51.072;5.402;2023-01-29T05:47:43;-1.80;99.90
54954;DHT22;40855;51.072;5.402;2023-01-29T05:50:09;-1.80;99.90
54954;DHT22;40855;51.072;5.402;2023-01-29T05:52:35;-1.70;99.90
54954;DHT22;40855;51.072;5.402;2023-01-29T05:55:01;-1.80;99.90
54954;DHT22;40855;51.072;5.402;2023-01-29T05:57:26;-1.70;99.90
54954;DHT22;40855;51.072;5.402;2023-01-29T05:59:52;-1.70;99.90
54954;DHT22;40855;51.072;5.402;2023-01-29T06:02:18;-1.70;99.90
54954;DHT22;40855;51.072;5.402;2023-01-29T06:04:43;-1.70;99.90
54954;DHT22;40855;51.072;5.402;2023-01-29T06:07:09;-1.70;99.90
54954;DHT22;40855;51.072;5.402;2023-01-29T06:09:35;-1.60;99.90
54954;DHT22;40855;51.072;5.402;2023-01-29T06:12:00;-1.60;99.90
54954;DHT22;40855;51.072;5.402;2023-01-29T06:14:26;-1.60;99.90
54954;DHT22;40855;51.072;5.402;2023-01-29T06:16:52;-1.60;99.90
54954;DHT22;40855;51.072;5.402;2023-01-29T06:19:18;-1.50;99.90
54954;DHT22;40855;51.072;5.402;2023-01-29T06:21:45;-1.60;99.90
54954;DHT22;40855;51.072;5.402;2023-01-29T06:24:10;-1.50;99.90
54954;DHT22;40855;51.072;5.402;2023-01-29T06:26:36;-1.50;99.90
54954;DHT22;40855;51.072;5.402;2023-01-29T06:29:02;-1.50;99.90
54954;DHT22;40855;51.072;5.402;2023-01-29T06:31:27;-1.40;99.90
54954;DHT22;40855;51.072;5.402;2023-01-29T06:33:53;-1.40;99.90
54954;DHT22;40855;51.072;5.402;2023-01-29T06:36:19;-1.40;99.90
54954;DHT22;40855;51.072;5.402;2023-01-29T06:38:44;-1.40;99.90
54954;DHT22;40855;51.072;5.402;2023-01-29T06:41:14;-1.40;99.90
54954;DHT22;40855;51.072;5.402;2023-01-29T06:43:43;-1.30;99.90
54954;DHT22;40855;51.072;5.402;2023-01-29T06:46:09;-1.30;99.90
54954;DHT22;40855;51.072;5.402;2023-01-29T06:48:35;-1.30;99.90
54954;DHT22;40855;51.072;5.402;2023-01-29T06:51:05;-1.30;99.90
54954;DHT22;40855;51.072;5.402;2023-01-29T06:53:36;-1.20;99.90
54954;DHT22;40855;51.072;5.402;2023-01-29T06:56:03;-1.20;99.90
54954;DHT22;40855;51.072;5.402;2023-01-29T06:58:29;-1.20;99.90
54954;DHT22;40855;51.072;5.402;2023-01-29T07:01:05;-1.20;99.90
54954;DHT22;40855;51.072;5.402;2023-01-29T07:03:31;-1.20;99.90
54954;DHT22;40855;51.072;5.402;2023-01-29T07:05:57;-1.20;99.90
54954;DHT22;40855;51.072;5.402;2023-01-29T07:08:23;-1.20;99.90
54954;DHT22;40855;51.072;5.402;2023-01-29T07:10:50;-1.10;99.90
54954;DHT22;40855;51.072;5.402;2023-01-29T07:13:15;-1.20;99.90
54954;DHT22;40855;51.072;5.402;2023-01-29T07:15:41;-1.20;99.90
54954;DHT22;40855;51.072;5.402;2023-01-29T07:18:09;-1.20;99.90
54954;DHT22;40855;51.072;5.402;2023-01-29T07:20:39;-1.10;99.90
54954;DHT22;40855;51.072;5.402;2023-01-29T07:23:06;-1.10;99.90
54954;DHT22;40855;51.072;5.402;2023-01-29T07:25:32;-1.00;99.90
54954;DHT22;40855;51.072;5.402;2023-01-29T07:28:02;-1.10;99.90
54954;DHT22;40855;51.072;5.402;2023-01-29T07:30:28;-1.00;99.90
54954;DHT22;40855;51.072;5.402;2023-01-29T07:32:54;-1.00;99.90
54954;DHT22;40855;51.072;5.402;2023-01-29T07:35:20;-0.90;99.90
54954;DHT22;40855;51.072;5.402;2023-01-29T07:37:49;-1.00;99.90
54954;DHT22;40855;51.072;5.402;2023-01-29T07:40:15;-1.00;99.90
54954;DHT22;40855;51.072;5.402;2023-01-29T07:42:40;-1.00;99.90
54954;DHT22;40855;51.072;5.402;2023-01-29T07:45:09;-0.90;99.90
54954;DHT22;40855;51.072;5.402;2023-01-29T07:47:35;-0.90;99.90
54954;DHT22;40855;51.072;5.402;2023-01-29T07:50:01;-0.90;99.90
54954;DHT22;40855;51.072;5.402;2023-01-29T07:52:32;-0.90;99.90
54954;DHT22;40855;51.072;5.402;2023-01-29T07:54:58;-0.90;99.90
54954;DHT22;40855;51.072;5.402;2023-01-29T07:57:24;-1.00;99.90
54954;DHT22;40855;51.072;5.402;2023-01-29T07:59:50;-0.90;99.90
54954;DHT22;40855;51.072;5.402;2023-01-29T08:02:16;-0.90;99.90
54954;DHT22;40855;51.072;5.402;2023-01-29T08:04:42;-0.90;99.90
54954;DHT22;40855;51.072;5.402;2023-01-29T08:07:07;-0.80;99.90
54954;DHT22;40855;51.072;5.402;2023-01-29T08:09:34;-0.90;99.90
54954;DHT22;40855;51.072;5.402;2023-01-29T08:12:00;-0.80;99.90
54954;DHT22;40855;51.072;5.402;2023-01-29T08:14:26;-0.80;99.90
54954;DHT22;40855;51.072;5.402;2023-01-29T08:16:52;-0.80;99.90
54954;DHT22;40855;51.072;5.402;2023-01-29T08:19:18;-0.80;99.90
54954;DHT22;40855;51.072;5.402;2023-01-29T08:21:43;-0.80;99.90
54954;DHT22;40855;51.072;5.402;2023-01-29T08:24:09;-0.80;99.90
54954;DHT22;40855;51.072;5.402;2023-01-29T08:26:35;-0.80;99.90
54954;DHT22;40855;51.072;5.402;2023-01-29T08:29:01;-0.70;99.90
54954;DHT22;40855;51.072;5.402;2023-01-29T08:31:26;-0.70;99.90
54954;DHT22;40855;51.072;5.402;2023-01-29T08:33:55;-0.70;99.90
54954;DHT22;40855;51.072;5.402;2023-01-29T08:36:21;-0.70;99.90
54954;DHT22;40855;51.072;5.402;2023-01-29T08:38:46;-0.70;99.90
54954;DHT22;40855;51.072;5.402;2023-01-29T08:41:12;-0.70;99.90
54954;DHT22;40855;51.072;5.402;2023-01-29T08:43:38;-0.60;99.90
54954;DHT22;40855;51.072;5.402;2023-01-29T08:46:05;-0.70;99.90
54954;DHT22;40855;51.072;5.402;2023-01-29T08:48:31;-0.70;99.90
54954;DHT22;40855;51.072;5.402;2023-01-29T08:50:58;-0.60;99.90
54954;DHT22;40855;51.072;5.402;2023-01-29T08:53:25;-0.60;99.90
54954;DHT22;40855;51.072;5.402;2023-01-29T08:55:51;-0.60;99.90
54954;DHT22;40855;51.072;5.402;2023-01-29T08:58:17;-0.60;99.90
54954;DHT22;40855;51.072;5.402;2023-01-29T09:00:43;-0.50;99.90
54954;DHT22;40855;51.072;5.402;2023-01-29T09:03:09;-0.50;99.90
54954;DHT22;40855;51.072;5.402;2023-01-29T09:05:36;-0.50;99.90
54954;DHT22;40855;51.072;5.402;2023-01-29T09:08:03;-0.50;99.90
54954;DHT22;40855;51.072;5.402;2023-01-29T09:10:29;-0.50;99.90
54954;DHT22;40855;51.072;5.402;2023-01-29T09:12:55;-0.40;99.90
54954;DHT22;40855;51.072;5.402;2023-01-29T09:15:21;-0.40;99.90
54954;DHT22;40855;51.072;5.402;2023-01-29T09:17:46;-0.40;99.90
54954;DHT22;40855;51.072;5.402;2023-01-29T09:20:14;-0.50;99.90
54954;DHT22;40855;51.072;5.402;2023-01-29T09:22:40;-0.40;99.90
54954;DHT22;40855;51.072;5.402;2023-01-29T09:25:06;-0.40;99.90
54954;DHT22;40855;51.072;5.402;2023-01-29T09:27:32;-0.40;99.90
54954;DHT22;40855;51.072;5.402;2023-01-29T09:29:58;-0.40;99.90
54954;DHT22;40855;51.072;5.402;2023-01-29T09:32:24;-0.40;99.90
54954;DHT22;40855;51.072;5.402;2023-01-29T09:34:50;-0.30;99.90
54954;DHT22;40855;51.072;5.402;2023-01-29T09:37:16;-0.30;99.90
54954;DHT22;40855;51.072;5.402;2023-01-29T09:39:42;-0.30;99.90
54954;DHT22;40855;51.072;5.402;2023-01-29T09:47:17;-0.20;99.90
54954;DHT22;40855;51.072;5.402;2023-01-29T09:49:55;-0.20;99.90
54954;DHT22;40855;51.072;5.402;2023-01-29T09:52:32;-0.20;99.90
54954;DHT22;40855;51.072;5.402;2023-01-29T09:55:09;-0.20;99.90
54954;DHT22;40855;51.072;5.402;2023-01-29T09:57:41;-0.20;99.90
54954;DHT22;40855;51.072;5.402;2023-01-29T10:01:05;-0.10;99.90
54954;DHT22;40855;51.072;5.402;2023-01-29T10:19:17;0.00;99.90
54954;DHT22;40855;51.072;5.402;2023-01-29T10:24:44;0.00;99.90
54954;DHT22;40855;51.072;5.402;2023-01-29T10:27:16;0.10;99.90
54954;DHT22;40855;51.072;5.402;2023-01-29T10:29:43;0.10;99.90
54954;DHT22;40855;51.072;5.402;2023-01-29T10:32:18;0.20;99.90
54954;DHT22;40855;51.072;5.402;2023-01-29T10:34:47;0.10;99.90
54954;DHT22;40855;51.072;5.402;2023-01-29T10:37:20;0.20;99.90
54954;DHT22;40855;51.072;5.402;2023-01-29T10:39:48;0.20;99.90
54954;DHT22;40855;51.072;5.402;2023-01-29T10:55:38;0.30;99.90
54954;DHT22;40855;51.072;5.402;2023-01-29T11:00:37;0.40;99.90
54954;DHT22;40855;51.072;5.402;2023-01-29T11:03:23;0.40;99.90
54954;DHT22;40855;51.072;5.402;2023-01-29T11:08:58;0.40;99.90
54954;DHT22;40855;51.072;5.402;2023-01-29T11:11:32;0.50;99.90
54954;DHT22;40855;51.072;5.402;2023-01-29T11:14:03;0.50;99.90
54954;DHT22;40855;51.072;5.402;2023-01-29T11:16:40;0.60;99.90
54954;DHT22;40855;51.072;5.402;2023-01-29T11:19:06;0.50;99.90
54954;DHT22;40855;51.072;5.402;2023-01-29T11:21:54;0.60;99.90
54954;DHT22;40855;51.072;5.402;2023-01-29T11:24:21;0.60;99.90
54954;DHT22;40855;51.072;5.402;2023-01-29T11:26:48;0.60;99.90
54954;DHT22;40855;51.072;5.402;2023-01-29T11:31:52;0.60;99.90
54954;DHT22;40855;51.072;5.402;2023-01-29T11:34:22;0.70;99.90
54954;DHT22;40855;51.072;5.402;2023-01-29T11:37:00;0.70;99.90
54954;DHT22;40855;51.072;5.402;2023-01-29T11:39:29;0.70;99.90
54954;DHT22;40855;51.072;5.402;2023-01-29T11:42:00;0.80;99.90
54954;DHT22;40855;51.072;5.402;2023-01-29T11:44:33;0.80;99.90
54954;DHT22;40855;51.072;5.402;2023-01-29T11:47:18;0.80;99.90
54954;DHT22;40855;51.072;5.402;2023-01-29T11:49:47;0.80;99.90
54954;DHT22;40855;51.072;5.402;2023-01-29T11:52:15;0.80;99.90
54954;DHT22;40855;51.072;5.402;2023-01-29T11:54:57;0.90;99.90
54954;DHT22;40855;51.072;5.402;2023-01-29T11:57:34;0.90;99.90
54954;DHT22;40855;51.072;5.402;2023-01-29T12:02:43;1.00;99.90
54954;DHT22;40855;51.072;5.402;2023-01-29T12:05:15;1.10;99.90
54954;DHT22;40855;51.072;5.402;2023-01-29T12:07:47;1.00;99.90
54954;DHT22;40855;51.072;5.402;2023-01-29T12:10:30;1.00;99.90
54954;DHT22;40855;51.072;5.402;2023-01-29T12:15:41;1.10;99.90
54954;DHT22;40855;51.072;5.402;2023-01-29T12:21:02;1.10;99.90
54954;DHT22;40855;51.072;5.402;2023-01-29T12:23:38;1.20;99.90
54954;DHT22;40855;51.072;5.402;2023-01-29T12:26:14;1.20;99.90
54954;DHT22;40855;51.072;5.402;2023-01-29T12:31:25;1.30;99.90
54954;DHT22;40855;51.072;5.402;2023-01-29T12:34:07;1.30;99.90
54954;DHT22;40855;51.072;5.402;2023-01-29T12:39:29;1.40;99.90
54954;DHT22;40855;51.072;5.402;2023-01-29T12:47:35;1.40;99.90
54954;DHT22;40855;51.072;5.402;2023-01-29T12:50:13;1.40;99.90
54954;DHT22;40855;51.072;5.402;2023-01-29T12:52:42;1.50;99.90
54954;DHT22;40855;51.072;5.402;2023-01-29T12:55:28;1.50;99.90
54954;DHT22;40855;51.072;5.402;2023-01-29T12:58:00;1.50;99.90
54954;DHT22;40855;51.072;5.402;2023-01-29T13:00:34;1.60;99.90
54954;DHT22;40855;51.072;5.402;2023-01-29T13:03:17;1.60;99.90
54954;DHT22;40855;51.072;5.402;2023-01-29T13:08:17;1.70;99.90
54954;DHT22;40855;51.072;5.402;2023-01-29T13:10:45;1.70;99.90
54954;DHT22;40855;51.072;5.402;2023-01-29T13:15:47;1.80;99.90
54954;DHT22;40855;51.072;5.402;2023-01-29T13:18:35;1.80;99.90
54954;DHT22;40855;51.072;5.402;2023-01-29T13:21:03;1.80;99.90
54954;DHT22;40855;51.072;5.402;2023-01-29T13:23:39;1.90;99.90
54954;DHT22;40855;51.072;5.402;2023-01-29T13:26:06;1.80;99.90
54954;DHT22;40855;51.072;5.402;2023-01-29T13:28:32;1.80;99.90
54954;DHT22;40855;51.072;5.402;2023-01-29T13:31:34;1.90;99.90
54954;DHT22;40855;51.072;5.402;2023-01-29T13:34:21;1.90;99.90
54954;DHT22;40855;51.072;5.402;2023-01-29T13:36:50;1.90;99.90
54954;DHT22;40855;51.072;5.402;2023-01-29T13:41:45;2.00;99.90
54954;DHT22;40855;51.072;5.402;2023-01-29T13:46:59;2.10;99.90
54954;DHT22;40855;51.072;5.402;2023-01-29T13:49:30;2.00;99.90
54954;DHT22;40855;51.072;5.402;2023-01-29T13:51:57;2.10;99.90
54954;DHT22;40855;51.072;5.402;2023-01-29T13:54:25;2.10;99.90
54954;DHT22;40855;51.072;5.402;2023-01-29T13:59:22;2.10;99.90
54954;DHT22;40855;51.072;5.402;2023-01-29T14:06:45;2.10;99.90
54954;DHT22;40855;51.072;5.402;2023-01-29T14:12:03;2.20;99.90
54954;DHT22;40855;51.072;5.402;2023-01-29T14:17:15;2.20;99.90
54954;DHT22;40855;51.072;5.402;2023-01-29T14:19:52;2.20;99.90
54954;DHT22;40855;51.072;5.402;2023-01-29T14:22:25;2.30;99.90
54954;DHT22;40855;51.072;5.402;2023-01-29T14:24:59;2.30;99.90
54954;DHT22;40855;51.072;5.402;2023-01-29T14:27:25;2.20;99.90
54954;DHT22;40855;51.072;5.402;2023-01-29T14:30:01;2.30;99.90
54954;DHT22;40855;51.072;5.402;2023-01-29T14:32:30;2.30;99.90
54954;DHT22;40855;51.072;5.402;2023-01-29T14:35:07;2.30;99.90
54954;DHT22;40855;51.072;5.402;2023-01-29T14:37:38;2.30;99.90
54954;DHT22;40855;51.072;5.402;2023-01-29T14:42:42;2.30;99.90
54954;DHT22;40855;51.072;5.402;2023-01-29T14:45:23;2.30;99.90
54954;DHT22;40855;51.072;5.402;2023-01-29T14:47:51;2.30;99.90
54954;DHT22;40855;51.072;5.402;2023-01-29T14:58:43;2.40;99.90
54954;DHT22;40855;51.072;5.402;2023-01-29T15:01:31;2.50;99.90
54954;DHT22;40855;51.072;5.402;2023-01-29T15:14:55;2.50;99.90
54954;DHT22;40855;51.072;5.402;2023-01-29T15:17:33;2.50;99.90
54954;DHT22;40855;51.072;5.402;2023-01-29T15:20:00;2.50;99.90
54954;DHT22;40855;51.072;5.402;2023-01-29T15:22:26;2.50;99.90
54954;DHT22;40855;51.072;5.402;2023-01-29T15:25:14;2.60;99.90
54954;DHT22;40855;51.072;5.402;2023-01-29T15:27:43;2.60;99.90
54954;DHT22;40855;51.072;5.402;2023-01-29T15:30:14;2.60;99.90
54954;DHT22;40855;51.072;5.402;2023-01-29T15:32:40;2.60;99.90
54954;DHT22;40855;51.072;5.402;2023-01-29T15:35:29;2.60;99.90
54954;DHT22;40855;51.072;5.402;2023-01-29T15:38:00;2.60;99.90
54954;DHT22;40855;51.072;5.402;2023-01-29T15:40:26;2.70;99.90
54954;DHT22;40855;51.072;5.402;2023-01-29T15:42:51;2.70;99.90
54954;DHT22;40855;51.072;5.402;2023-01-29T15:47:47;2.60;99.90
54954;DHT22;40855;51.072;5.402;2023-01-29T15:50:13;2.70;99.90
54954;DHT22;40855;51.072;5.402;2023-01-29T15:52:39;2.70;99.90
54954;DHT22;40855;51.072;5.402;2023-01-29T15:55:06;2.70;99.90
54954;DHT22;40855;51.072;5.402;2023-01-29T15:57:36;2.70;99.90
54954;DHT22;40855;51.072;5.402;2023-01-29T16:00:16;2.70;99.90
54954;DHT22;40855;51.072;5.402;2023-01-29T16:02:42;2.70;99.90
54954;DHT22;40855;51.072;5.402;2023-01-29T16:05:14;2.70;99.90
54954;DHT22;40855;51.072;5.402;2023-01-29T16:07:42;2.70;99.90
54954;DHT22;40855;51.072;5.402;2023-01-29T16:10:26;2.80;99.90
54954;DHT22;40855;51.072;5.402;2023-01-29T16:12:53;2.70;99.90
54954;DHT22;40855;51.072;5.402;2023-01-29T16:15:35;2.80;99.90
54954;DHT22;40855;51.072;5.402;2023-01-29T16:18:03;2.80;99.90
54954;DHT22;40855;51.072;5.402;2023-01-29T16:20:44;2.80;99.90
54954;DHT22;40855;51.072;5.402;2023-01-29T16:23:41;2.80;99.90
54954;DHT22;40855;51.072;5.402;2023-01-29T16:26:14;2.80;99.90
54954;DHT22;40855;51.072;5.402;2023-01-29T16:28:41;2.70;99.90
54954;DHT22;40855;51.072;5.402;2023-01-29T16:31:09;2.80;99.90
54954;DHT22;40855;51.072;5.402;2023-01-29T16:33:37;2.80;99.90
54954;DHT22;40855;51.072;5.402;2023-01-29T16:36:16;2.80;99.90
54954;DHT22;40855;51.072;5.402;2023-01-29T16:38:50;2.80;99.90
54954;DHT22;40855;51.072;5.402;2023-01-29T16:43:52;2.90;99.90
54954;DHT22;40855;51.072;5.402;2023-01-29T16:46:36;2.80;99.90
54954;DHT22;40855;51.072;5.402;2023-01-29T16:51:51;2.80;99.90
54954;DHT22;40855;51.072;5.402;2023-01-29T16:54:20;2.80;99.90
54954;DHT22;40855;51.072;5.402;2023-01-29T16:56:54;2.80;99.90
54954;DHT22;40855;51.072;5.402;2023-01-29T16:59:34;2.80;99.90
54954;DHT22;40855;51.072;5.402;2023-01-29T17:02:01;2.80;99.90
54954;DHT22;40855;51.072;5.402;2023-01-29T17:04:28;2.80;99.90
54954;DHT22;40855;51.072;5.402;2023-01-29T17:06:57;2.80;99.90
54954;DHT22;40855;51.072;5.402;2023-01-29T17:09:28;2.80;99.90
54954;DHT22;40855;51.072;5.402;2023-01-29T17:12:00;2.80;99.90
54954;DHT22;40855;51.072;5.402;2023-01-29T17:14:29;2.80;99.90
54954;DHT22;40855;51.072;5.402;2023-01-29T17:17:02;2.80;99.90
54954;DHT22;40855;51.072;5.402;2023-01-29T17:19:29;2.90;99.90
54954;DHT22;40855;51.072;5.402;2023-01-29T17:21:58;2.80;99.90
54954;DHT22;40855;51.072;5.402;2023-01-29T17:24:24;2.80;99.90
54954;DHT22;40855;51.072;5.402;2023-01-29T17:26:50;2.90;99.90
54954;DHT22;40855;51.072;5.402;2023-01-29T17:29:19;2.80;99.90
54954;DHT22;40855;51.072;5.402;2023-01-29T17:31:46;2.80;99.90
54954;DHT22;40855;51.072;5.402;2023-01-29T17:34:13;2.80;99.90
54954;DHT22;40855;51.072;5.402;2023-01-29T17:36:42;2.80;99.90
54954;DHT22;40855;51.072;5.402;2023-01-29T17:41:44;2.80;99.90
54954;DHT22;40855;51.072;5.402;2023-01-29T17:44:11;2.70;99.90
54954;DHT22;40855;51.072;5.402;2023-01-29T17:46:37;2.80;99.90
54954;DHT22;40855;51.072;5.402;2023-01-29T17:49:03;2.80;99.90
54954;DHT22;40855;51.072;5.402;2023-01-29T17:51:34;2.80;99.90
54954;DHT22;40855;51.072;5.402;2023-01-29T17:53:59;2.80;99.90
54954;DHT22;40855;51.072;5.402;2023-01-29T17:56:25;2.80;99.90
54954;DHT22;40855;51.072;5.402;2023-01-29T17:58:57;2.80;99.90
54954;DHT22;40855;51.072;5.402;2023-01-29T18:01:22;2.80;99.90
54954;DHT22;40855;51.072;5.402;2023-01-29T18:03:48;2.80;99.90
54954;DHT22;40855;51.072;5.402;2023-01-29T18:06:32;2.80;99.90
54954;DHT22;40855;51.072;5.402;2023-01-29T18:08:58;2.80;99.90
54954;DHT22;40855;51.072;5.402;2023-01-29T18:11:23;2.80;99.90
54954;DHT22;40855;51.072;5.402;2023-01-29T18:13:50;2.90;99.90
54954;DHT22;40855;51.072;5.402;2023-01-29T18:16:15;2.80;99.90
54954;DHT22;40855;51.072;5.402;2023-01-29T18:18:42;2.90;99.90
54954;DHT22;40855;51.072;5.402;2023-01-29T18:21:08;2.90;99.90
54954;DHT22;40855;51.072;5.402;2023-01-29T18:23:34;2.90;99.90
54954;DHT22;40855;51.072;5.402;2023-01-29T18:26:00;2.90;99.90
54954;DHT22;40855;51.072;5.402;2023-01-29T18:28:25;2.90;99.90
54954;DHT22;40855;51.072;5.402;2023-01-29T18:30:51;2.80;99.90
54954;DHT22;40855;51.072;5.402;2023-01-29T18:33:17;2.90;99.90
54954;DHT22;40855;51.072;5.402;2023-01-29T18:35:44;2.90;99.90
54954;DHT22;40855;51.072;5.402;2023-01-29T18:38:10;2.80;99.90
54954;DHT22;40855;51.072;5.402;2023-01-29T18:40:35;2.80;99.90
54954;DHT22;40855;51.072;5.402;2023-01-29T18:43:01;2.90;99.90
54954;DHT22;40855;51.072;5.402;2023-01-29T18:45:28;2.80;99.90